Airfield :
LOGIN :

Register | Disclaimer

   EN    FR    IT 

 










Legend :    VFR   Marginal VFR   IFR   Intensive IFR   Very Intensive IFR
Visi :
Ceiling :
>= 8 km
>= 3000ft
5 to 8 km
1000 to 3000 ft
1500m to 5 km
500 to 1000 ft
800 to 1500m
200 to 500 ft
< 800m
< 200 ft
Symbols :   Thunderstorms  Fog  Heavy snow  Heavy precipitations  Wind > 20 kt
SIGMETs :     Misc.  Thunderstorms  Icing  Turbulence  Mountain Waves  Volcanic Ashes






- Airport Elevation : 458 ft


LFSI - St-Dizier

CURRENT METAR :
  • 180600Z AUTO 27005KT 4600 -RA BR BKN026/// OVC033/// ///TCU 04/03 Q1009

EXPIRED METARs :
  • 180530Z AUTO 27005KT 4900 -RA BR FEW020/// BKN029/// OVC041/// ///TCU 04/03 Q1009
  • 180500Z AUTO 28005KT 4700 -RA BR FEW022/// BKN028/// BKN035/// ///TCU 04/03 Q1009
  • 180430Z AUTO 27004KT 4500 -RA BR FEW013/// BKN033/// BKN040/// ///TCU 04/03 Q1009
  • 180400Z AUTO 27005KT 4800 -RA BR OVC010/// ///TCU 04/03 Q1009
  • 180330Z AUTO 29007KT 5000 -RA BR OVC010/// ///TCU 04/03 Q1008

TAF AMD TAF LFSI
Valid from the 18 at 05:00 until the 19 at 03:00 UTC


180543Z 1805/1903 29007KT 6000 RA BKN025 BKN035
TEMPO 1806/1810 2000 RASN BKN005 BKN020 BKN030
BECMG 1815/1817 NSW BKN010 BKN020 BKN030
TEMPO 1817/1824 2000 RADZ BKN003 BKN005 BKN010
BECMG 1900/1902 3000 BR
TEMPO 1902/1903 0600 BCFG VV///



MET'MAP, your aeronautical weather chart ! - Copyright ORBIFLY December 2007 - Disclaimer

ORBIFLY MET'MAP TEAM :

Programming & Development : Alexandra Zaïnal
Concept & Development : Baudouin d'Aumeries
Co-Development & Prog : Marc-Olivier Méhu
Technical & hardware support : Manuel Goepfert

Contact : metmap@orbifly.com




SOURCES & CREDITS :

   NOAA